KMSP/MSP METAR and TAF weather

Enter ICAO airport designator
Station Type Date Time Source
KMSP METAR 2022/07/01 01:53 UTC NOAA

KMSP 010153Z 33014KT 10SM FEW100 SCT130 SCT180 SCT250 27/12 A2987 RMK AO2 SLP110 VIRGA T02670117


Station Type Date Time Source
KMSP Decoded METAR 2022/07/01 01:53 UTC NOAA

MINNEAPOLIS-ST PAUL INTERNATIONAL , MN, United States (KMSP) 44-52N 93-13W 265M
Jun 30, 2022 - 09:53 PM EDT / 2022.07.01 0153 UTC
Wind: from the NNW (330 degrees) at 16 MPH (14 KT):0
Visibility: 10 mile(s):0
Sky conditions: partly cloudy
Temperature: 80.1 F (26.7 C)
Dew Point: 53.1 F (11.7 C)
Relative Humidity: 39%
Pressure (altimeter): 29.87 in. Hg (1011 hPa)
ob: KMSP 010153Z 33014KT 10SM FEW100 SCT130 SCT180 SCT250 27/12 A2987 RMK AO2 SLP110 VIRGA T02670117
cycle: 2

Station Type Date Time Source
KMSP TAF 2022/06/30 20:03 UTC NOAA

TAF
AMD KMSP 302000Z 3020/0124 31012G18KT P6SM SCT120
FM010600 32007KT P6SM SKC
FM011800 29012G18KT P6SM FEW050

Example: see airport list